Time;durP1;ratioP1;P1;durP2;ratioP2;P2;SDS_P1;SDS_P2;PMS_P1;PMS_P2;Temp;Humidity;BMP_temperature;BMP_pressure;BME280_temperature;BME280_humidity;BME280_pressure;Samples;Min_cycle;Max_cycle;Signal;HPM_P1;HPM_P2
2024/02/15 00:00:53;;;;;;;30.30;14.40;;;;;;;0.91;65.20;99735.70;108838;1251;110005;-73
2024/02/15 00:03:37;;;;;;;29.90;13.90;;;;;;;0.96;65.42;99728.59;108838;1251;94903;-74
2024/02/15 00:06:05;;;;;;;31.40;15.20;;;;;;;1.00;65.29;99725.89;108855;1251;107694;-75
2024/02/15 00:08:33;;;;;;;34.10;17.00;;;;;;;1.00;65.22;99724.84;108777;1252;94278;-73
2024/02/15 00:11:01;;;;;;;34.70;16.40;;;;;;;0.95;65.12;99728.45;108950;1250;94305;-73
2024/02/15 00:13:30;;;;;;;33.00;15.40;;;;;;;0.91;65.14;99726.44;108835;1251;109509;-73
2024/02/15 00:15:58;;;;;;;30.10;14.40;;;;;;;0.93;65.29;99730.06;108816;1251;95831;-73
2024/02/15 00:18:26;;;;;;;31.50;14.50;;;;;;;0.93;65.44;99730.77;108885;1251;106489;-75
2024/02/15 00:20:54;;;;;;;33.60;14.50;;;;;;;0.92;65.47;99731.83;108803;1251;94260;-73
2024/02/15 00:23:22;;;;;;;35.40;16.90;;;;;;;0.92;65.39;99734.09;108866;1251;94237;-74
2024/02/15 00:25:50;;;;;;;33.20;17.30;;;;;;;0.91;65.28;99740.23;108831;1251;109914;-74
2024/02/15 00:28:18;;;;;;;33.00;16.90;;;;;;;0.86;65.39;99735.96;108973;1251;95828;-74
2024/02/15 00:30:46;;;;;;;39.40;16.70;;;;;;;0.85;65.68;99740.00;108894;1251;107578;-73
2024/02/15 00:33:14;;;;;;;32.70;16.50;;;;;;;0.90;65.65;99744.96;108859;1251;94512;-74
2024/02/15 00:35:42;;;;;;;33.30;16.40;;;;;;;0.94;65.66;99742.95;108896;1251;94316;-74
2024/02/15 00:38:10;;;;;;;31.10;15.90;;;;;;;0.99;65.65;99740.25;108878;1251;109594;-73
2024/02/15 00:40:39;;;;;;;41.20;18.30;;;;;;;1.00;65.80;99742.98;108854;1251;95450;-73
2024/02/15 00:43:07;;;;;;;40.30;17.60;;;;;;;1.02;65.67;99739.09;108801;1251;107150;-74
2024/02/15 00:45:35;;;;;;;33.90;16.80;;;;;;;1.04;65.85;99738.70;108846;1250;94357;-74
2024/02/15 00:48:06;;;;;;;34.30;15.30;;;;;;;1.07;65.60;99738.14;108865;1250;94942;-73
2024/02/15 00:50:34;;;;;;;39.40;18.10;;;;;;;1.08;65.64;99737.56;108862;1251;109990;-73
2024/02/15 00:53:02;;;;;;;42.80;18.20;;;;;;;1.06;65.65;99738.51;108884;1251;95731;-73
2024/02/15 00:55:32;;;;;;;31.70;16.70;;;;;;;1.03;65.66;99737.52;108840;1251;107620;-73
2024/02/15 00:58:00;;;;;;;33.00;16.00;;;;;;;1.06;66.03;99736.23;108830;1251;94396;-73
2024/02/15 01:00:28;;;;;;;29.80;14.80;;;;;;;1.07;65.82;99734.62;108870;1251;94265;-74
2024/02/15 01:02:56;;;;;;;30.60;15.50;;;;;;;1.08;65.69;99729.02;108828;1250;108682;-73
2024/02/15 01:05:24;;;;;;;28.30;14.50;;;;;;;1.12;65.96;99725.10;108893;1251;96064;-73
2024/02/15 01:07:52;;;;;;;33.40;14.10;;;;;;;1.14;65.60;99731.48;108844;1251;107676;-73
2024/02/15 01:10:20;;;;;;;31.10;14.60;;;;;;;1.14;65.94;99733.42;108878;1251;94190;-73
2024/02/15 01:12:48;;;;;;;28.30;14.50;;;;;;;1.12;65.82;99734.34;108864;1251;94351;-73
2024/02/15 01:15:18;;;;;;;31.90;14.40;;;;;;;1.09;66.23;99731.27;108862;1251;109661;-73
2024/02/15 01:17:46;;;;;;;31.60;15.60;;;;;;;1.08;66.00;99736.34;108904;1251;96096;-73
2024/02/15 01:20:15;;;;;;;33.10;15.00;;;;;;;1.07;65.88;99739.86;108818;1251;107639;-74
2024/02/15 01:22:44;;;;;;;28.10;15.00;;;;;;;1.07;66.07;99738.29;108775;1252;94538;-73
2024/02/15 01:25:12;;;;;;;29.10;13.60;;;;;;;1.08;65.88;99736.88;108818;1252;95671;-74
2024/02/15 01:27:40;;;;;;;26.50;12.90;;;;;;;1.08;66.01;99734.80;108825;1252;110594;-74
2024/02/15 01:30:08;;;;;;;26.90;12.50;;;;;;;1.08;66.16;99735.32;108817;1251;95475;-74
2024/02/15 01:32:36;;;;;;;21.90;12.20;;;;;;;1.08;66.06;99733.73;108880;1251;107752;-74
2024/02/15 01:35:05;;;;;;;23.80;12.70;;;;;;;1.09;66.21;99736.16;108836;1251;94589;-73
2024/02/15 01:37:33;;;;;;;23.30;11.90;;;;;;;1.06;66.14;99733.27;108861;1252;94218;-73
2024/02/15 01:40:00;;;;;;;27.30;12.80;;;;;;;1.05;65.86;99735.36;108749;1252;109828;-74
2024/02/15 01:42:28;;;;;;;25.70;13.00;;;;;;;1.07;66.11;99733.95;108823;1253;95988;-73
2024/02/15 01:44:56;;;;;;;23.50;12.50;;;;;;;1.08;66.25;99733.39;108777;1251;108192;-74
2024/02/15 01:47:24;;;;;;;27.70;13.10;;;;;;;1.06;66.46;99736.05;108869;1251;94262;-73
2024/02/15 01:49:53;;;;;;;24.20;12.20;;;;;;;1.05;66.16;99734.85;108971;1251;94247;-73
2024/02/15 01:52:21;;;;;;;24.10;12.30;;;;;;;1.00;66.14;99730.95;108854;1251;110007;-75
2024/02/15 01:54:52;;;;;;;27.90;12.50;;;;;;;0.95;66.42;99731.75;108869;1250;94299;-73
2024/02/15 01:57:23;;;;;;;24.70;11.70;;;;;;;0.95;66.24;99730.04;108863;1251;107803;-75
2024/02/15 01:59:54;;;;;;;24.40;12.40;;;;;;;0.96;66.46;99724.92;108813;1251;94415;-74
2024/02/15 02:02:25;;;;;;;22.70;11.60;;;;;;;0.96;66.18;99719.87;108871;1253;96019;-73
2024/02/15 02:04:53;;;;;;;23.90;11.90;;;;;;;0.94;66.27;99715.55;108837;1253;110086;-74
2024/02/15 02:07:20;;;;;;;26.00;11.50;;;;;;;0.92;66.53;99715.41;108889;1251;95582;-75
2024/02/15 02:09:48;;;;;;;24.00;12.00;;;;;;;0.91;66.13;99720.86;108865;1251;107849;-73
2024/02/15 02:12:17;;;;;;;24.10;12.00;;;;;;;0.86;66.31;99721.64;108839;1252;94648;-73
2024/02/15 02:14:45;;;;;;;28.60;15.10;;;;;;;0.83;66.14;99721.73;108873;1251;94272;-75
2024/02/15 02:17:14;;;;;;;26.50;13.50;;;;;;;0.72;65.97;99723.52;108813;1251;109501;-73
2024/02/15 02:19:43;;;;;;;24.50;12.50;;;;;;;0.62;66.27;99715.37;108813;1252;95447;-73
2024/02/15 02:22:11;;;;;;;26.40;12.10;;;;;;;0.58;66.33;99713.35;108875;1252;107751;-74
2024/02/15 02:25:03;;;;;;;20.30;10.20;;;;;;;0.57;66.50;99705.88;108888;1253;94488;-75
2024/02/15 02:27:32;;;;;;;20.90;10.70;;;;;;;0.64;66.49;99705.03;108760;1253;94422;-73
2024/02/15 02:30:00;;;;;;;20.20;9.10;;;;;;;0.66;66.53;99700.98;108782;1251;110037;-73
2024/02/15 02:32:28;;;;;;;23.40;10.30;;;;;;;0.66;66.50;99706.73;108809;1251;94601;-73
2024/02/15 02:34:57;;;;;;;21.50;10.30;;;;;;;0.61;66.24;99712.77;108830;1251;107310;-73
2024/02/15 02:37:25;;;;;;;20.90;10.10;;;;;;;0.56;66.29;99716.70;108840;1252;94482;-73
2024/02/15 02:39:53;;;;;;;21.00;10.30;;;;;;;0.54;66.44;99714.30;108818;1253;94266;-73
2024/02/15 02:42:21;;;;;;;15.20;9.30;;;;;;;0.56;66.60;99715.66;108839;1251;109463;-76
2024/02/15 02:44:48;;;;;;;18.00;9.40;;;;;;;0.60;66.50;99716.83;108860;1251;95973;-74
2024/02/15 02:47:16;;;;;;;21.40;10.50;;;;;;;0.61;66.48;99715.21;108814;1252;107616;-73
2024/02/15 02:49:44;;;;;;;20.20;8.80;;;;;;;0.62;66.53;99715.72;108824;1251;94333;-75
2024/02/15 02:52:12;;;;;;;21.40;9.10;;;;;;;0.65;66.43;99720.00;108832;1252;94254;-73
2024/02/15 02:54:41;;;;;;;17.00;8.90;;;;;;;0.65;66.60;99721.59;108844;1249;109594;-74
2024/02/15 02:57:08;;;;;;;17.30;8.10;;;;;;;0.64;66.47;99721.24;108949;1253;94741;-73
2024/02/15 02:59:39;;;;;;;16.80;8.20;;;;;;;0.65;66.83;99718.09;108805;1251;106705;-73
2024/02/15 03:02:08;;;;;;;17.10;8.00;;;;;;;0.68;66.72;99715.23;108866;1251;94260;-73
2024/02/15 03:04:38;;;;;;;17.00;8.00;;;;;;;0.74;66.84;99720.17;108860;1253;94251;-73
2024/02/15 03:07:06;;;;;;;16.50;8.30;;;;;;;0.77;66.86;99720.81;108857;1251;109421;-75
2024/02/15 03:09:35;;;;;;;15.00;7.60;;;;;;;0.78;66.89;99721.16;108843;1253;95495;-73
2024/02/15 03:12:04;;;;;;;15.70;7.80;;;;;;;0.80;66.83;99721.79;108740;1252;107629;-73
2024/02/15 03:14:35;;;;;;;15.70;7.30;;;;;;;0.82;66.72;99723.66;108807;1251;94344;-74
2024/02/15 03:17:03;;;;;;;14.90;7.30;;;;;;;0.86;66.91;99721.83;108875;1251;94218;-73
2024/02/15 03:19:31;;;;;;;11.40;6.80;;;;;;;0.90;66.78;99727.84;108853;1251;109916;-73
2024/02/15 03:22:00;;;;;;;12.50;7.00;;;;;;;0.94;67.07;99728.81;108933;1253;96643;-73
2024/02/15 03:24:28;;;;;;;15.60;8.20;;;;;;;0.96;66.89;99723.54;108860;1251;106893;-73
2024/02/15 03:26:56;;;;;;;15.20;7.40;;;;;;;0.98;67.05;99728.91;108849;1251;94188;-73
2024/02/15 03:29:25;;;;;;;18.00;8.70;;;;;;;0.97;66.86;99726.65;108895;1251;94448;-73
2024/02/15 03:31:54;;;;;;;15.70;8.10;;;;;;;0.99;67.03;99728.00;108826;1251;109639;-73
2024/02/15 03:34:23;;;;;;;16.20;8.80;;;;;;;1.00;67.01;99730.24;108827;1251;95326;-73
2024/02/15 03:36:53;;;;;;;17.00;9.10;;;;;;;1.01;67.17;99730.42;108899;1251;108158;-73
2024/02/15 03:39:23;;;;;;;27.80;13.50;;;;;;;0.99;66.78;99729.77;108931;1251;94359;-75
2024/02/15 03:41:53;;;;;;;39.50;17.80;;;;;;;0.92;66.67;99731.48;108929;1251;94433;-73
2024/02/15 03:44:25;;;;;;;33.00;17.70;;;;;;;0.84;66.76;99727.11;108953;1251;110936;-74
2024/02/15 03:46:54;;;;;;;30.90;16.10;;;;;;;0.80;66.86;99727.38;108860;1251;95222;-73
2024/02/15 03:49:25;;;;;;;26.20;13.30;;;;;;;0.82;67.10;99731.85;108859;1251;107262;-73
2024/02/15 03:51:54;;;;;;;36.10;16.40;;;;;;;0.86;67.17;99732.48;108895;1252;94237;-73
2024/02/15 03:54:23;;;;;;;34.10;17.20;;;;;;;0.90;67.17;99732.05;108940;1251;94221;-74
2024/02/15 03:56:52;;;;;;;34.20;15.70;;;;;;;0.88;67.05;99731.90;108837;1251;109537;-73
2024/02/15 03:59:26;;;;;;;27.40;15.00;;;;;;;0.85;67.11;99731.98;108831;1251;95335;-75
2024/02/15 04:01:54;;;;;;;30.90;16.00;;;;;;;0.85;67.04;99731.80;108834;1251;107693;-73
2024/02/15 04:04:22;;;;;;;28.50;14.20;;;;;;;0.85;66.89;99731.45;108881;1251;94247;-74
2024/02/15 04:06:54;;;;;;;26.90;13.50;;;;;;;0.87;67.32;99730.19;108843;1251;95931;-73
2024/02/15 04:09:22;;;;;;;26.60;13.70;;;;;;;0.91;67.16;99726.96;108908;1253;110038;-73
2024/02/15 04:11:52;;;;;;;29.30;14.70;;;;;;;0.92;67.07;99725.36;108861;1250;95543;-74
2024/02/15 04:14:21;;;;;;;29.30;15.70;;;;;;;0.91;67.25;99729.23;108844;1251;107679;-74
2024/02/15 04:16:49;;;;;;;28.50;14.30;;;;;;;0.92;67.34;99727.27;108856;1253;94556;-73
2024/02/15 04:19:19;;;;;;;23.50;11.80;;;;;;;0.96;67.41;99724.23;108844;1251;94355;-73
2024/02/15 04:21:48;;;;;;;22.00;11.60;;;;;;;1.02;67.52;99727.73;108871;1251;109904;-73
2024/02/15 04:24:16;;;;;;;22.80;12.00;;;;;;;1.10;67.43;99728.61;108807;1251;95448;-74
2024/02/15 04:26:45;;;;;;;19.20;10.70;;;;;;;1.15;67.34;99728.86;108816;1251;107144;-74
2024/02/15 04:29:14;;;;;;;19.90;10.10;;;;;;;1.19;67.43;99726.31;108805;1253;94265;-73
2024/02/15 04:31:42;;;;;;;20.10;10.00;;;;;;;1.21;67.12;99727.69;108847;1251;94518;-74
2024/02/15 04:34:11;;;;;;;23.60;12.00;;;;;;;1.18;67.40;99726.86;108852;1251;109585;-73
2024/02/15 04:36:39;;;;;;;25.70;12.90;;;;;;;1.17;67.45;99725.83;108829;1253;96159;-73
2024/02/15 04:39:07;;;;;;;26.70;12.00;;;;;;;1.17;67.24;99722.02;108797;1251;106196;-74
2024/02/15 04:41:34;;;;;;;24.50;11.30;;;;;;;1.17;67.32;99718.34;108821;1251;94629;-74
2024/02/15 04:44:03;;;;;;;21.70;12.60;;;;;;;1.18;67.56;99720.77;108851;1251;94629;-74
2024/02/15 04:46:31;;;;;;;26.20;12.60;;;;;;;1.21;67.80;99717.55;108793;1251;109430;-73
2024/02/15 04:49:01;;;;;;;23.70;10.60;;;;;;;1.23;67.55;99721.86;108840;1251;95742;-71
2024/02/15 04:51:29;;;;;;;22.30;10.70;;;;;;;1.25;67.41;99723.04;108838;1251;107563;-71
2024/02/15 04:53:58;;;;;;;20.30;10.40;;;;;;;1.26;67.82;99723.02;108799;1251;94233;-73
2024/02/15 04:56:25;;;;;;;23.80;10.90;;;;;;;1.25;67.73;99726.70;108891;1251;94306;-71
2024/02/15 04:58:53;;;;;;;18.30;9.50;;;;;;;1.27;67.53;99726.65;108767;1251;109879;-74
2024/02/15 05:01:22;;;;;;;16.80;9.30;;;;;;;1.32;68.00;99727.05;108883;1251;95475;-75
2024/02/15 05:03:50;;;;;;;17.30;9.10;;;;;;;1.39;67.92;99727.08;108848;1252;106864;-73
2024/02/15 05:06:19;;;;;;;16.10;8.00;;;;;;;1.43;68.01;99725.57;108789;1250;94575;-73
2024/02/15 05:08:47;;;;;;;18.40;9.50;;;;;;;1.47;67.99;99723.89;108925;1251;94274;-74
2024/02/15 05:11:17;;;;;;;17.10;8.00;;;;;;;1.52;67.87;99725.88;108727;1253;112147;-75
2024/02/15 05:13:46;;;;;;;18.10;9.10;;;;;;;1.56;67.72;99725.27;108823;1251;94567;-73
2024/02/15 05:16:14;;;;;;;19.10;10.40;;;;;;;1.56;67.83;99729.98;108821;1251;106968;-74
2024/02/15 05:18:42;;;;;;;18.30;8.50;;;;;;;1.56;67.95;99728.77;108794;1251;94486;-78
2024/02/15 05:21:10;;;;;;;15.60;8.60;;;;;;;1.58;68.10;99734.83;108790;1251;94253;-76
2024/02/15 05:23:43;;;;;;;15.50;8.10;;;;;;;1.62;68.15;99733.69;108923;1252;109870;-76
2024/02/15 05:26:12;;;;;;;13.40;7.50;;;;;;;1.66;68.04;99732.88;108849;1251;94534;-76
2024/02/15 05:28:40;;;;;;;17.60;8.20;;;;;;;1.70;68.22;99728.04;108880;1251;107254;-76
2024/02/15 05:31:10;;;;;;;17.30;7.30;;;;;;;1.75;68.15;99722.50;108840;1251;94566;-76
2024/02/15 05:33:43;;;;;;;12.20;6.80;;;;;;;1.80;68.25;99724.30;108765;1251;94632;-76
2024/02/15 05:36:12;;;;;;;10.60;6.30;;;;;;;1.83;68.43;99721.08;108741;1251;110187;-72
2024/02/15 05:38:41;;;;;;;18.40;7.30;;;;;;;1.88;68.54;99722.52;108659;1252;95057;-73
2024/02/15 05:41:09;;;;;;;17.00;8.50;;;;;;;1.94;68.00;99724.46;108726;1255;107779;-73
2024/02/15 05:43:38;;;;;;;15.00;6.80;;;;;;;1.99;68.13;99726.24;108771;1252;94432;-73
2024/02/15 05:46:07;;;;;;;13.00;6.70;;;;;;;2.05;68.23;99729.07;108838;1251;94309;-74
2024/02/15 05:48:36;;;;;;;17.10;8.50;;;;;;;2.07;68.23;99729.17;108829;1253;109937;-72
2024/02/15 05:51:07;;;;;;;14.20;7.50;;;;;;;2.08;68.23;99727.91;108899;1251;94593;-73
2024/02/15 05:53:38;;;;;;;14.50;7.60;;;;;;;2.08;68.12;99727.20;108843;1251;108571;-73
2024/02/15 05:56:08;;;;;;;13.60;7.50;;;;;;;2.11;68.22;99734.69;108896;1251;94257;-74
2024/02/15 05:58:36;;;;;;;12.70;7.30;;;;;;;2.15;68.24;99739.11;108851;1253;94297;-73
2024/02/15 06:01:07;;;;;;;16.00;7.80;;;;;;;2.17;68.08;99743.42;108766;1251;109674;-73
2024/02/15 06:03:38;;;;;;;13.40;7.40;;;;;;;2.18;68.19;99741.83;108736;1253;95223;-73
2024/02/15 06:06:06;;;;;;;15.50;8.70;;;;;;;2.20;68.23;99744.23;108855;1251;107138;-73
2024/02/15 06:08:36;;;;;;;16.90;8.20;;;;;;;2.22;68.09;99749.95;108824;1251;94319;-73
2024/02/15 06:11:05;;;;;;;13.40;7.10;;;;;;;2.23;68.18;99750.97;108857;1251;94333;-73
2024/02/15 06:13:33;;;;;;;17.80;8.20;;;;;;;2.26;68.52;99750.54;108815;1251;109903;-73
2024/02/15 06:16:01;;;;;;;18.40;7.90;;;;;;;2.30;68.27;99754.27;108809;1251;94832;-75
2024/02/15 06:18:31;;;;;;;16.60;8.30;;;;;;;2.35;68.49;99757.83;108761;1251;108310;-73
2024/02/15 06:20:59;;;;;;;15.60;7.80;;;;;;;2.40;68.35;99761.37;108865;1251;94237;-73
2024/02/15 06:23:28;;;;;;;19.40;8.50;;;;;;;2.41;68.21;99759.07;108845;1251;94388;-73
2024/02/15 06:25:58;;;;;;;16.70;8.50;;;;;;;2.44;68.45;99757.23;108845;1251;109399;-74
2024/02/15 06:39:41;;;;;;;12.60;7.30;;;;;;;2.61;68.68;99759.02;108779;1251;110193;-73
2024/02/15 06:42:22;;;;;;;14.80;7.30;;;;;;;2.68;68.53;99761.27;108841;1251;95312;-73
2024/02/15 06:44:50;;;;;;;16.40;7.60;;;;;;;2.72;68.54;99767.45;108790;1251;107203;-73
2024/02/15 06:47:19;;;;;;;16.40;8.00;;;;;;;2.74;68.43;99766.17;108853;1251;94272;-74
2024/02/15 06:49:50;;;;;;;14.60;7.70;;;;;;;2.77;68.65;99775.20;108844;1255;94613;-73
2024/02/15 06:52:18;;;;;;;16.70;8.30;;;;;;;2.80;68.52;99773.38;108858;1251;108801;-73
2024/02/15 06:54:45;;;;;;;13.80;7.30;;;;;;;2.82;68.75;99776.64;108808;1251;95942;-73
2024/02/15 06:57:15;;;;;;;20.50;8.30;;;;;;;2.86;68.93;99777.92;108838;1251;107333;-73
2024/02/15 06:59:46;;;;;;;18.20;7.50;;;;;;;2.90;68.68;99779.36;108621;1257;94332;-73
2024/02/15 07:02:14;;;;;;;16.40;8.50;;;;;;;2.92;68.55;99777.40;108825;1255;94455;-75
2024/02/15 07:04:45;;;;;;;17.20;7.60;;;;;;;2.95;68.72;99778.54;108808;1253;109665;-73
2024/02/15 07:07:14;;;;;;;12.90;7.20;;;;;;;2.99;68.72;99780.69;108856;1251;95566;-73
2024/02/15 07:09:42;;;;;;;11.20;6.30;;;;;;;3.05;68.67;99783.66;108839;1251;107642;-73
2024/02/15 07:12:10;;;;;;;13.60;6.60;;;;;;;3.11;68.62;99781.36;108809;1251;94545;-73
2024/02/15 07:14:38;;;;;;;11.40;6.10;;;;;;;3.17;68.78;99781.02;108847;1251;94246;-73
2024/02/15 07:17:06;;;;;;;8.90;5.70;;;;;;;3.23;68.87;99783.14;108966;1253;109580;-74
2024/02/15 07:19:36;;;;;;;12.50;6.20;;;;;;;3.28;68.77;99787.16;108862;1251;95524;-74
2024/02/15 07:22:04;;;;;;;12.90;6.50;;;;;;;3.28;68.85;99785.08;108789;1251;107622;-74
2024/02/15 07:24:32;;;;;;;12.60;6.50;;;;;;;3.26;68.59;99783.52;108914;1251;94226;-73
2024/02/15 07:27:00;;;;;;;12.40;6.80;;;;;;;3.29;68.80;99777.30;108886;1251;94656;-75
2024/02/15 07:29:28;;;;;;;13.00;5.80;;;;;;;3.35;68.80;99772.77;108897;1251;109996;-74
2024/02/15 07:31:55;;;;;;;10.60;5.50;;;;;;;3.39;68.88;99774.36;108858;1250;95537;-73
2024/02/15 07:34:23;;;;;;;11.40;5.70;;;;;;;3.43;68.80;99772.69;108904;1251;107607;-73
2024/02/15 07:36:51;;;;;;;10.20;6.00;;;;;;;3.47;68.89;99773.80;108845;1251;94209;-73
2024/02/15 07:39:24;;;;;;;11.10;5.70;;;;;;;3.50;68.92;99773.85;108839;1252;94534;-74
2024/02/15 07:41:54;;;;;;;11.80;6.00;;;;;;;3.54;68.78;99779.16;108853;1251;110385;-73
2024/02/15 07:44:22;;;;;;;8.80;5.80;;;;;;;3.58;68.99;99779.40;108767;1251;95222;-73
2024/02/15 07:46:50;;;;;;;11.90;5.90;;;;;;;3.62;68.77;99778.20;108899;1251;107620;-74
2024/02/15 07:49:18;;;;;;;13.40;6.40;;;;;;;3.66;68.74;99778.78;108799;1251;94677;-73
2024/02/15 07:51:52;;;;;;;9.30;5.60;;;;;;;3.69;68.80;99783.25;108856;1254;94417;-73
2024/02/15 07:54:21;;;;;;;10.40;6.10;;;;;;;3.74;68.86;99777.98;108818;1251;109908;-75
2024/02/15 07:56:50;;;;;;;11.50;6.50;;;;;;;3.78;68.70;99781.89;108875;1251;95453;-73
2024/02/15 07:59:17;;;;;;;9.90;6.00;;;;;;;3.82;68.80;99778.77;108784;1251;106829;-74
2024/02/15 08:01:49;;;;;;;9.70;5.80;;;;;;;3.85;68.90;99777.11;108854;1255;94406;-73
2024/02/15 08:04:19;;;;;;;;;;;;;;;3.90;68.86;99775.71;108882;1251;94303;-73
2024/02/15 08:06:48;;;;;;;11.50;6.10;;;;;;;3.93;68.82;99778.59;108897;1251;109088;-73
2024/02/15 08:09:17;;;;;;;11.50;5.90;;;;;;;3.98;68.93;99777.02;108862;1251;94711;-73
2024/02/15 08:11:45;;;;;;;11.30;5.80;;;;;;;4.01;69.20;99777.79;108811;1250;108270;-74
2024/02/15 08:14:13;;;;;;;10.40;5.70;;;;;;;4.07;68.87;99776.36;108799;1255;94260;-74
2024/02/15 08:16:41;;;;;;;10.90;6.20;;;;;;;4.14;69.06;99777.71;108830;1255;94355;-73
2024/02/15 08:19:10;;;;;;;10.90;5.90;;;;;;;4.20;68.95;99776.63;108753;1254;109926;-73
2024/02/15 08:21:41;;;;;;;12.70;6.30;;;;;;;4.25;68.99;99775.42;108767;1253;95579;-74
2024/02/15 08:24:09;;;;;;;11.80;6.80;;;;;;;4.29;69.04;99780.70;108719;1251;107747;-73
2024/02/15 08:26:39;;;;;;;10.00;5.80;;;;;;;4.33;69.02;99781.95;108774;1251;94611;-74
2024/02/15 08:29:07;;;;;;;9.60;5.70;;;;;;;4.36;68.96;99785.57;108756;1251;94329;-73
2024/02/15 08:31:35;;;;;;;11.80;6.00;;;;;;;4.39;68.99;99782.09;108840;1251;109339;-74
2024/02/15 08:34:09;;;;;;;12.40;6.80;;;;;;;4.45;69.11;99784.00;108834;1255;94334;-74
2024/02/15 08:36:39;;;;;;;11.50;5.80;;;;;;;4.50;69.04;99788.38;108813;1251;108110;-73
2024/02/15 08:39:11;;;;;;;11.50;5.40;;;;;;;4.52;69.18;99786.88;108750;1251;94626;-74
2024/02/15 08:41:40;;;;;;;10.00;5.30;;;;;;;4.56;68.94;99791.86;108740;1251;94539;-73
2024/02/15 08:44:11;;;;;;;11.80;5.80;;;;;;;4.58;68.96;99794.41;108810;1251;110450;-74
2024/02/15 08:46:39;;;;;;;10.40;5.90;;;;;;;4.63;69.06;99793.73;108791;1251;95321;-73
2024/02/15 08:49:07;;;;;;;8.90;5.00;;;;;;;4.66;69.11;99792.56;108917;1251;107822;-73
2024/02/15 08:51:35;;;;;;;10.20;5.80;;;;;;;4.71;69.10;99789.20;108821;1251;94348;-73
2024/02/15 08:54:03;;;;;;;11.80;5.50;;;;;;;4.74;69.01;99785.90;108875;1251;94314;-73
2024/02/15 08:56:33;;;;;;;10.60;5.70;;;;;;;4.78;68.99;99787.90;108773;1251;109901;-73
2024/02/15 08:59:01;;;;;;;10.20;5.80;;;;;;;4.82;69.05;99787.41;108795;1251;95727;-75
2024/02/15 09:01:31;;;;;;;8.10;5.60;;;;;;;4.87;69.06;99788.80;108773;1251;107148;-73
2024/02/15 09:03:59;;;;;;;12.20;5.80;;;;;;;4.92;69.08;99796.35;108846;1251;94281;-74
2024/02/15 09:06:27;;;;;;;8.20;5.80;;;;;;;4.95;69.04;99794.13;108849;1251;94540;-73
2024/02/15 09:08:56;;;;;;;10.40;5.70;;;;;;;4.96;69.01;99796.89;108872;1251;109728;-74
2024/02/15 09:11:29;;;;;;;8.60;4.70;;;;;;;5.00;69.05;99794.98;108866;1251;95564;-73
2024/02/15 09:13:58;;;;;;;10.70;5.20;;;;;;;5.04;69.04;99793.06;108672;1256;107754;-73
2024/02/15 09:16:25;;;;;;;10.40;5.40;;;;;;;5.07;69.12;99794.55;108834;1251;94209;-73
2024/02/15 09:18:53;;;;;;;10.40;5.50;;;;;;;5.11;69.17;99797.55;108875;1251;94620;-74
2024/02/15 09:21:21;;;;;;;9.70;5.90;;;;;;;5.15;69.05;99800.05;108886;1251;107768;-74
2024/02/15 09:23:49;;;;;;;9.00;5.30;;;;;;;5.18;69.13;99802.55;108885;1251;95561;-73
2024/02/15 09:26:17;;;;;;;9.80;5.20;;;;;;;5.23;69.03;99803.44;108749;1251;107673;-74
2024/02/15 09:28:45;;;;;;;9.80;5.60;;;;;;;5.23;69.00;99807.13;108775;1251;94708;-74
2024/02/15 09:31:13;;;;;;;9.50;5.80;;;;;;;5.23;68.98;99807.31;108814;1251;94295;-74
2024/02/15 09:33:41;;;;;;;10.60;5.50;;;;;;;5.25;69.04;99808.44;108965;1251;109953;-73
2024/02/15 09:36:10;;;;;;;9.50;4.80;;;;;;;5.27;69.06;99807.68;108771;1251;94530;-73
2024/02/15 09:38:38;;;;;;;10.20;6.00;;;;;;;5.28;68.98;99806.24;108822;1251;107733;-74
2024/02/15 09:41:08;;;;;;;11.30;6.50;;;;;;;5.32;69.03;99809.24;108749;1255;94234;-73
2024/02/15 09:43:38;;;;;;;11.30;5.70;;;;;;;5.36;69.07;99805.22;108809;1251;94304;-74
2024/02/15 09:46:06;;;;;;;10.80;6.10;;;;;;;5.39;69.01;99804.73;108753;1256;109866;-73
2024/02/15 09:48:35;;;;;;;12.30;6.10;;;;;;;5.43;69.01;99801.41;108792;1251;95453;-74
2024/02/15 09:51:03;;;;;;;12.50;6.30;;;;;;;5.48;69.07;99801.23;108847;1251;108232;-73
2024/02/15 09:53:32;;;;;;;10.00;6.00;;;;;;;5.53;69.09;99797.69;108703;1254;94371;-73
2024/02/15 09:56:04;;;;;;;10.90;6.00;;;;;;;5.58;69.20;99792.73;108843;1251;94631;-73
2024/02/15 09:58:33;;;;;;;11.10;5.90;;;;;;;5.63;69.20;99791.98;108775;1251;109946;-73
2024/02/15 10:01:09;;;;;;;11.90;6.60;;;;;;;5.68;69.14;99792.88;108807;1251;95479;-73
2024/02/15 10:03:41;;;;;;;12.60;6.20;;;;;;;5.72;69.11;99796.39;108841;1251;108152;-73
2024/02/15 10:06:09;;;;;;;12.80;6.50;;;;;;;5.76;69.01;99795.70;108699;1251;94500;-73
2024/02/15 10:08:38;;;;;;;11.60;6.10;;;;;;;5.80;69.07;99790.77;108848;1251;94515;-73
2024/02/15 10:11:09;;;;;;;14.40;7.60;;;;;;;5.86;69.26;99791.25;108707;1251;111148;-74
2024/02/15 10:13:39;;;;;;;11.40;7.30;;;;;;;5.89;69.12;99789.88;108863;1251;95461;-73
2024/02/15 10:16:18;;;;;;;14.80;7.10;;;;;;;5.93;69.10;99788.66;108823;1251;106000;-74
2024/02/15 10:18:49;;;;;;;15.90;7.60;;;;;;;5.95;68.98;99788.02;108691;1251;94706;-73
2024/02/15 10:21:25;;;;;;;14.80;7.50;;;;;;;5.99;68.99;99784.91;108843;1251;94603;-74
2024/02/15 10:24:05;;;;;;;14.30;7.60;;;;;;;6.02;69.15;99783.91;108795;1252;109982;-74
2024/02/15 10:26:34;;;;;;;14.60;7.70;;;;;;;6.08;69.15;99786.48;108835;1251;95548;-74
2024/02/15 10:29:11;;;;;;;13.70;7.40;;;;;;;6.14;69.06;99783.43;108750;1251;108911;-73
2024/02/15 10:31:51;;;;;;;17.60;7.80;;;;;;;6.22;69.16;99781.30;108766;1251;94327;-73
2024/02/15 10:34:20;;;;;;;12.70;6.80;;;;;;;6.31;69.24;99781.45;108885;1251;94424;-74
2024/02/15 10:36:49;;;;;;;14.70;7.30;;;;;;;6.36;69.33;99780.87;108777;1251;110150;-74
2024/02/15 10:39:19;;;;;;;12.20;7.10;;;;;;;6.41;69.22;99784.19;108788;1251;94678;-74
2024/02/15 10:41:52;;;;;;;14.70;7.20;;;;;;;6.46;69.31;99783.61;108728;1251;107681;-74
2024/02/15 10:44:23;;;;;;;14.20;7.80;;;;;;;6.50;69.24;99782.23;108867;1250;94868;-76
2024/02/15 10:46:52;;;;;;;13.90;7.60;;;;;;;6.54;69.13;99780.05;108828;1251;94582;-74
2024/02/15 10:49:25;;;;;;;14.20;8.50;;;;;;;6.58;69.05;99782.71;108810;1251;109352;-76
2024/02/15 10:51:58;;;;;;;11.90;7.30;;;;;;;6.62;69.13;99782.20;108723;1250;96377;-76
2024/02/15 10:54:46;;;;;;;12.20;7.40;;;;;;;6.66;69.32;99785.55;108760;1251;109089;-75
2024/02/15 10:57:24;;;;;;;12.30;6.70;;;;;;;6.69;69.18;99774.65;108620;1251;94498;-74
2024/02/15 11:00:19;;;;;;;12.20;6.70;;;;;;;6.74;69.29;99775.88;108766;1251;94285;-74
2024/02/15 11:03:36;;;;;;;15.20;7.30;;;;;;;6.81;69.35;99774.83;102593;1292;635970;-74
2024/02/15 11:06:07;;;;;;;15.30;7.30;;;;;;;6.83;69.15;99778.28;105206;1272;94319;-74
2024/02/15 11:08:36;;;;;;;17.60;8.40;;;;;;;6.85;69.11;99778.70;105269;1269;94400;-74
2024/02/15 11:11:05;;;;;;;21.40;8.10;;;;;;;6.88;69.16;99778.23;105632;1263;107287;-74
2024/02/15 11:13:33;;;;;;;15.50;7.20;;;;;;;6.90;69.26;99778.16;105149;1263;95372;-74
2024/02/15 11:16:01;;;;;;;21.30;8.20;;;;;;;6.93;69.33;99776.58;107710;1259;107611;-75
2024/02/15 11:18:48;;;;;;;12.30;7.50;;;;;;;6.96;69.26;99775.92;105468;1257;94398;-75
2024/02/15 11:21:18;;;;;;;14.30;7.70;;;;;;;6.99;69.26;99768.73;108185;1256;94239;-74
2024/02/15 11:23:46;;;;;;;14.70;8.50;;;;;;;7.01;69.14;99772.15;105682;1257;106724;-74
2024/02/15 11:26:46;;;;;;;14.90;7.90;;;;;;;7.05;69.24;99768.98;105997;1257;95416;-74
2024/02/15 11:29:58;;;;;;;17.20;8.60;;;;;;;7.09;69.20;99764.38;105126;1270;107781;-76
2024/02/15 11:32:56;;;;;;;19.30;7.90;;;;;;;7.14;69.02;99762.71;105967;1257;95324;-74
2024/02/15 11:35:25;;;;;;;13.90;7.50;;;;;;;7.19;69.16;99764.10;105523;1257;95838;-73
2024/02/15 11:37:58;;;;;;;18.00;8.10;;;;;;;7.23;69.09;99762.84;105789;1258;110296;-74
2024/02/15 11:40:28;;;;;;;16.40;8.10;;;;;;;7.28;69.28;99759.41;106061;1256;95186;-74
2024/02/15 11:43:00;;;;;;;16.40;8.80;;;;;;;7.34;69.12;99761.05;105591;1257;108977;-75